createdAt,value
2019-04-26T00:00:15.900Z,6.40
2019-04-26T00:01:43.729Z,6.33
2019-04-26T00:03:10.322Z,5.97
2019-04-26T00:04:36.048Z,5.23
2019-04-26T00:06:01.845Z,6.73
2019-04-26T00:07:27.460Z,7.07
2019-04-26T00:09:10.942Z,6.00
2019-04-26T00:10:59.250Z,5.70
2019-04-26T00:12:37.988Z,6.40
2019-04-26T00:14:28.851Z,5.70
2019-04-26T00:16:26.739Z,5.60
2019-04-26T00:17:58.583Z,5.27
2019-04-26T00:19:24.003Z,6.37
2019-04-26T00:20:49.869Z,6.00
2019-04-26T00:22:15.520Z,4.97
2019-04-26T00:23:40.960Z,7.07
2019-04-26T00:25:07.163Z,5.90
2019-04-26T00:26:32.710Z,7.23
2019-04-26T00:27:58.278Z,6.77
2019-04-26T00:29:23.895Z,5.27
2019-04-26T00:30:49.368Z,6.80
2019-04-26T00:32:15.053Z,6.30
2019-04-26T00:33:40.675Z,5.93
2019-04-26T00:35:06.635Z,5.63
2019-04-26T00:36:35.969Z,5.77
2019-04-26T00:38:02.984Z,5.57
2019-04-26T00:39:28.463Z,5.90
2019-04-26T00:40:54.994Z,6.70
2019-04-26T00:42:20.804Z,6.27
2019-04-26T00:43:46.593Z,6.07
2019-04-26T00:45:12.501Z,4.80
2019-04-26T00:46:43.156Z,5.57
2019-04-26T00:48:10.133Z,6.00
2019-04-26T00:49:43.568Z,5.30
2019-04-26T00:51:04.843Z,4.70
2019-04-26T00:52:30.987Z,5.80
2019-04-26T00:53:56.943Z,6.13
2019-04-26T00:55:23.876Z,5.67
2019-04-26T00:56:50.542Z,6.03
2019-04-26T00:58:16.451Z,5.60
2019-04-26T00:59:42.420Z,5.28
2019-04-26T01:01:08.272Z,6.60
2019-04-26T01:02:43.411Z,5.78
2019-04-26T01:04:10.385Z,6.47
2019-04-26T01:05:37.595Z,5.40
2019-04-26T01:07:03.046Z,6.63
2019-04-26T01:08:28.562Z,4.60
2019-04-26T01:09:54.116Z,4.93
2019-04-26T01:11:19.795Z,5.28
2019-04-26T01:12:45.312Z,6.67
2019-04-26T01:14:10.846Z,5.30
2019-04-26T01:15:36.623Z,5.13
2019-04-26T01:17:02.168Z,6.45
2019-04-26T01:18:31.305Z,5.10
2019-04-26T01:19:57.633Z,6.00
2019-04-26T01:21:26.899Z,6.17
2019-04-26T01:22:56.047Z,6.45
2019-04-26T01:24:25.400Z,6.80
2019-04-26T01:26:07.778Z,6.50
2019-04-26T01:27:35.475Z,5.00
2019-04-26T01:29:05.843Z,4.80
2019-04-26T01:30:35.700Z,4.90
2019-04-26T01:32:10.199Z,5.35
2019-04-26T01:33:38.051Z,5.73
2019-04-26T01:35:03.790Z,5.62
2019-04-26T01:36:31.324Z,6.87
2019-04-26T01:37:57.625Z,6.60
2019-04-26T01:39:24.607Z,5.12
2019-04-26T01:40:52.359Z,6.08
2019-04-26T01:42:28.428Z,6.30
2019-04-26T01:44:03.523Z,5.60
2019-04-26T01:45:55.463Z,5.40
2019-04-26T01:47:22.150Z,5.78
2019-04-26T01:48:56.890Z,5.60
2019-04-26T01:50:26.115Z,5.72
2019-04-26T01:51:57.978Z,5.47
2019-04-26T01:53:24.621Z,4.55
2019-04-26T01:54:50.425Z,4.00
2019-04-26T01:56:18.078Z,4.60
2019-04-26T01:57:44.447Z,5.25
2019-04-26T01:59:13.525Z,5.00
2019-04-26T02:00:49.862Z,5.03
2019-04-26T02:02:37.492Z,4.12
2019-04-26T02:04:06.334Z,5.15
2019-04-26T02:05:32.091Z,5.67
2019-04-26T02:06:57.561Z,5.37
2019-04-26T02:08:24.523Z,4.62
2019-04-26T02:09:56.818Z,5.40
2019-04-26T02:11:23.990Z,5.80
2019-04-26T02:12:50.962Z,5.50
2019-04-26T02:14:31.079Z,4.80
2019-04-26T02:15:57.615Z,4.30
2019-04-26T02:17:24.493Z,5.15
2019-04-26T02:18:50.390Z,5.03
2019-04-26T02:20:37.576Z,5.10
2019-04-26T02:22:16.478Z,5.47
2019-04-26T02:23:53.700Z,4.55
2019-04-26T02:25:19.358Z,5.30
2019-04-26T02:26:48.167Z,4.60
2019-04-26T02:28:13.827Z,4.47
2019-04-26T02:29:39.285Z,5.58
2019-04-26T02:31:04.827Z,4.65
2019-04-26T02:32:32.749Z,4.62
2019-04-26T02:33:59.104Z,4.22
2019-04-26T02:35:26.555Z,4.28
2019-04-26T02:36:58.440Z,5.43
2019-04-26T02:38:22.440Z,4.80
2019-04-26T02:39:48.105Z,4.35
2019-04-26T02:41:14.327Z,5.08
2019-04-26T02:42:43.211Z,4.15
2019-04-26T02:44:13.206Z,4.00
2019-04-26T02:46:08.113Z,4.65
2019-04-26T02:47:54.654Z,4.90
2019-04-26T02:49:45.366Z,4.85
2019-04-26T02:51:17.174Z,4.30
2019-04-26T02:52:57.012Z,4.33
2019-04-26T02:54:47.907Z,5.10
2019-04-26T02:56:23.149Z,4.85
2019-04-26T02:57:52.617Z,4.97
2019-04-26T02:59:47.044Z,4.67
2019-04-26T03:01:17.795Z,4.42
2019-04-26T03:02:50.039Z,4.25
2019-04-26T03:04:16.133Z,3.70
2019-04-26T03:05:43.715Z,5.10
2019-04-26T03:07:22.613Z,3.80
2019-04-26T03:08:54.002Z,4.47
2019-04-26T03:10:22.877Z,4.23
2019-04-26T03:11:54.168Z,5.55
2019-04-26T03:13:32.274Z,4.35
2019-04-26T03:15:19.135Z,5.10
2019-04-26T03:17:10.518Z,4.58
2019-04-26T03:18:53.739Z,4.90
2019-04-26T03:20:26.180Z,4.17
2019-04-26T03:22:17.760Z,4.37
2019-04-26T03:23:57.614Z,5.42
2019-04-26T03:25:25.499Z,4.55
2019-04-26T03:27:44.072Z,4.37
2019-04-26T03:29:20.616Z,4.75
2019-04-26T03:31:48.570Z,5.67
2019-04-26T03:33:45.249Z,4.90
2019-04-26T03:35:55.936Z,5.12
2019-04-26T03:37:46.026Z,3.45
2019-04-26T03:39:29.232Z,5.22
2019-04-26T03:41:08.329Z,4.55
2019-04-26T03:42:52.766Z,4.62
2019-04-26T03:44:58.737Z,4.90
2019-04-26T03:46:37.584Z,4.42
2019-04-26T03:48:16.807Z,4.58
2019-04-26T03:50:19.927Z,4.80
2019-04-26T03:52:12.060Z,5.83
2019-04-26T03:53:50.631Z,5.08
2019-04-26T03:56:12.713Z,5.22
2019-04-26T03:57:50.108Z,5.00
2019-04-26T03:59:35.192Z,5.67
2019-04-26T04:01:08.025Z,5.45
2019-04-26T04:03:00.118Z,5.10
2019-04-26T04:04:46.735Z,5.00
2019-04-26T04:06:19.431Z,6.12
2019-04-26T04:07:52.170Z,5.75
2019-04-26T04:09:18.077Z,5.85
2019-04-26T04:10:55.512Z,4.97
2019-04-26T04:13:03.590Z,5.05
2019-04-26T04:14:54.871Z,5.08
2019-04-26T04:16:39.339Z,6.10
2019-04-26T04:18:10.745Z,5.62
2019-04-26T04:20:16.440Z,5.15
2019-04-26T04:21:56.108Z,5.75
2019-04-26T04:23:51.892Z,5.90
2019-04-26T04:25:25.418Z,6.60
2019-04-26T04:27:15.555Z,6.17
2019-04-26T04:28:54.191Z,7.10
2019-04-26T04:30:56.439Z,6.05
2019-04-26T04:32:31.695Z,5.87
2019-04-26T04:34:13.288Z,5.20
2019-04-26T04:35:47.874Z,5.70
2019-04-26T04:37:26.115Z,6.12
2019-04-26T04:39:40.825Z,6.60
2019-04-26T04:41:38.216Z,6.62
2019-04-26T04:43:49.256Z,6.37
2019-04-26T04:45:58.740Z,6.72
2019-04-26T04:47:34.941Z,6.67
2019-04-26T04:49:25.984Z,5.60
2019-04-26T04:51:03.218Z,6.15
2019-04-26T04:52:37.663Z,5.85
2019-04-26T04:54:25.042Z,6.42
2019-04-26T04:56:25.509Z,4.95
2019-04-26T04:58:07.461Z,6.37
2019-04-26T04:59:54.117Z,5.80
2019-04-26T05:02:46.670Z,6.08
2019-04-26T05:04:25.029Z,5.70
2019-04-26T05:06:20.586Z,7.00
2019-04-26T05:08:14.616Z,6.90
2019-04-26T05:09:52.446Z,5.53
2019-04-26T05:11:28.144Z,6.45
2019-04-26T05:13:08.840Z,6.35
2019-04-26T05:15:16.429Z,5.85
2019-04-26T05:17:36.906Z,6.00
2019-04-26T05:19:29.635Z,6.35
2019-04-26T05:21:19.843Z,6.17
2019-04-26T05:23:20.660Z,6.37
2019-04-26T05:25:41.270Z,7.00
2019-04-26T05:27:46.893Z,7.00
2019-04-26T05:29:43.533Z,6.47
2019-04-26T05:31:35.643Z,7.10
2019-04-26T05:33:47.766Z,5.85
2019-04-26T05:35:44.485Z,4.80
2019-04-26T05:37:55.109Z,6.12
2019-04-26T05:39:47.720Z,5.95
2019-04-26T05:41:59.302Z,5.92
2019-04-26T05:44:18.096Z,5.87
2019-04-26T05:46:35.473Z,4.75
2019-04-26T05:48:37.716Z,5.37
2019-04-26T05:50:45.376Z,5.37
2019-04-26T05:53:19.507Z,5.30
2019-04-26T05:55:32.927Z,5.90
2019-04-26T05:57:10.979Z,5.58
2019-04-26T05:59:12.228Z,5.72
2019-04-26T06:01:52.042Z,7.00
2019-04-26T06:04:10.951Z,6.47
2019-04-26T06:06:15.527Z,5.92
2019-04-26T06:08:31.266Z,5.60
2019-04-26T06:10:39.884Z,5.15
2019-04-26T06:12:15.755Z,5.00
2019-04-26T06:14:48.224Z,5.45
2019-04-26T06:16:35.017Z,4.45
2019-04-26T06:18:21.361Z,3.42
2019-04-26T06:20:05.184Z,4.15
2019-04-26T06:21:53.869Z,3.92
2019-04-26T06:23:57.960Z,3.50
2019-04-26T06:25:46.515Z,4.08
2019-04-26T06:27:48.859Z,4.33
2019-04-26T06:29:32.664Z,3.60
2019-04-26T06:31:26.167Z,4.35
2019-04-26T06:33:15.288Z,4.92
2019-04-26T06:35:03.506Z,7.15
2019-04-26T06:36:42.761Z,5.00
2019-04-26T06:39:04.590Z,4.65
2019-04-26T06:40:54.594Z,3.72
2019-04-26T06:43:03.236Z,4.03
2019-04-26T06:44:33.440Z,3.70
2019-04-26T06:47:04.025Z,3.42
2019-04-26T06:48:49.882Z,3.20
2019-04-26T06:50:29.503Z,3.30
2019-04-26T06:52:04.983Z,3.30
2019-04-26T06:53:57.138Z,3.52
2019-04-26T06:55:33.442Z,3.57
2019-04-26T06:58:01.008Z,2.80
2019-04-26T06:59:51.673Z,4.55
2019-04-26T07:01:42.552Z,3.92
2019-04-26T07:03:47.082Z,3.65
2019-04-26T07:05:22.460Z,3.40
2019-04-26T07:07:14.067Z,3.33
2019-04-26T07:09:00.551Z,2.52
2019-04-26T07:11:35.352Z,3.62
2019-04-26T07:13:29.822Z,3.00
2019-04-26T07:15:34.564Z,3.05
2019-04-26T07:17:12.981Z,3.33
2019-04-26T07:19:16.490Z,3.30
2019-04-26T07:21:00.594Z,3.15
2019-04-26T07:22:57.265Z,3.25
2019-04-26T07:25:05.943Z,2.75
2019-04-26T07:27:15.471Z,2.40
2019-04-26T07:29:32.180Z,3.58
2019-04-26T07:31:10.777Z,2.60
2019-04-26T07:33:15.591Z,3.80
2019-04-26T07:35:06.618Z,3.27
2019-04-26T07:37:08.876Z,2.70
2019-04-26T07:39:19.509Z,4.60
2019-04-26T07:41:41.834Z,3.93
2019-04-26T07:43:37.613Z,3.47
2019-04-26T07:45:42.558Z,3.60
2019-04-26T07:48:20.205Z,3.20
2019-04-26T07:50:16.037Z,2.70
2019-04-26T07:52:18.512Z,2.27
2019-04-26T07:54:03.900Z,2.97
2019-04-26T07:55:39.370Z,3.03
2019-04-26T07:57:40.211Z,2.73
2019-04-26T07:59:58.639Z,3.15
2019-04-26T08:01:51.220Z,3.27
2019-04-26T08:03:32.751Z,3.30
2019-04-26T08:05:07.481Z,3.00
2019-04-26T08:07:01.077Z,3.23
2019-04-26T08:08:31.724Z,3.50
2019-04-26T08:10:14.687Z,3.70
2019-04-26T08:11:50.491Z,3.17
2019-04-26T08:13:18.956Z,2.70
2019-04-26T08:15:15.639Z,2.90
2019-04-26T08:16:58.499Z,2.80
2019-04-26T08:18:48.313Z,2.53
2019-04-26T08:20:50.968Z,2.57
2019-04-26T08:22:24.323Z,2.50
2019-04-26T08:23:57.813Z,3.10
2019-04-26T08:25:25.890Z,3.37
2019-04-26T08:27:23.637Z,3.23
2019-04-26T08:28:51.328Z,3.80
2019-04-26T08:30:19.345Z,3.40
2019-04-26T08:31:47.612Z,3.47
2019-04-26T08:33:16.225Z,3.90
2019-04-26T08:34:44.881Z,3.60
2019-04-26T08:36:14.646Z,4.10
2019-04-26T08:37:51.912Z,4.00
2019-04-26T08:39:32.546Z,3.50
2019-04-26T08:40:54.158Z,3.53
2019-04-26T08:42:25.027Z,4.30
2019-04-26T08:44:08.131Z,3.80
2019-04-26T08:46:13.051Z,4.53
2019-04-26T08:48:03.990Z,4.70
2019-04-26T08:49:47.763Z,3.63
2019-04-26T08:51:20.651Z,3.90
2019-04-26T08:52:48.655Z,4.43
2019-04-26T08:54:22.478Z,3.60
2019-04-26T08:55:49.864Z,4.77
2019-04-26T08:57:16.925Z,3.83
2019-04-26T08:58:45.407Z,3.97
2019-04-26T09:00:27.388Z,4.77
2019-04-26T09:02:13.460Z,4.37
2019-04-26T09:03:56.083Z,4.97
2019-04-26T09:05:45.639Z,5.20
2019-04-26T09:07:18.280Z,4.93
2019-04-26T09:08:46.560Z,4.87
2019-04-26T09:10:15.331Z,6.43
2019-04-26T09:11:42.025Z,5.30
2019-04-26T09:13:10.561Z,5.90
2019-04-26T09:14:37.910Z,5.20
2019-04-26T09:16:09.704Z,8.47
2019-04-26T09:17:35.255Z,6.63
2019-04-26T09:19:00.737Z,5.83
2019-04-26T09:20:29.421Z,5.20
2019-04-26T09:22:12.766Z,5.47
2019-04-26T09:23:51.963Z,5.37
2019-04-26T09:25:39.738Z,6.07
2019-04-26T09:27:38.169Z,5.80
2019-04-26T09:29:16.064Z,5.13
2019-04-26T09:31:09.682Z,5.23
2019-04-26T09:32:42.787Z,5.63
2019-04-26T09:34:10.396Z,5.30
2019-04-26T09:35:36.454Z,5.17
2019-04-26T09:37:02.043Z,5.50
2019-04-26T09:38:27.747Z,5.20
2019-04-26T09:39:53.209Z,4.97
2019-04-26T09:41:19.020Z,4.93
2019-04-26T09:43:02.782Z,5.10
2019-04-26T09:44:33.885Z,4.37
2019-04-26T09:46:18.204Z,5.13
2019-04-26T09:47:48.768Z,5.37
2019-04-26T09:49:41.266Z,5.13
2019-04-26T09:51:07.244Z,4.90
2019-04-26T09:52:38.625Z,4.10
2019-04-26T09:54:04.330Z,4.73
2019-04-26T09:55:35.429Z,5.03
2019-04-26T09:56:57.071Z,5.97
2019-04-26T09:58:22.574Z,5.60
2019-04-26T09:59:48.024Z,6.03
2019-04-26T10:01:13.732Z,6.20
2019-04-26T10:02:39.178Z,4.67
2019-04-26T10:04:04.781Z,5.30
2019-04-26T10:05:30.365Z,7.00
2019-04-26T10:06:59.512Z,6.67
2019-04-26T10:08:23.188Z,5.33
2019-04-26T10:09:51.635Z,5.00
2019-04-26T10:11:17.397Z,5.30
2019-04-26T10:12:53.664Z,4.73
2019-04-26T10:14:26.480Z,5.77
2019-04-26T10:16:16.811Z,5.87
2019-04-26T10:17:42.441Z,5.97
2019-04-26T10:19:13.764Z,6.10
2019-04-26T10:20:39.170Z,5.67
2019-04-26T10:22:04.777Z,6.03
2019-04-26T10:23:31.287Z,5.10
2019-04-26T10:24:56.721Z,5.40
2019-04-26T10:26:23.170Z,5.50
2019-04-26T10:27:49.555Z,4.77
2019-04-26T10:29:15.244Z,5.13
2019-04-26T10:30:42.417Z,4.70
2019-04-26T10:32:08.452Z,5.30
2019-04-26T10:33:36.505Z,5.40
2019-04-26T10:35:01.099Z,5.80
2019-04-26T10:36:30.137Z,5.70
2019-04-26T10:37:53.961Z,6.73
2019-04-26T10:39:20.554Z,6.20
2019-04-26T10:40:45.984Z,6.50
2019-04-26T10:42:11.480Z,6.17
2019-04-26T10:43:36.952Z,5.97
2019-04-26T10:45:02.516Z,5.93
2019-04-26T10:46:29.309Z,5.77
2019-04-26T10:47:55.303Z,5.33
2019-04-26T10:49:43.863Z,5.80
2019-04-26T10:51:09.880Z,5.13
2019-04-26T10:52:55.536Z,5.60
2019-04-26T10:54:20.590Z,6.17
2019-04-26T10:56:02.616Z,6.50
2019-04-26T10:57:35.716Z,4.70
2019-04-26T10:59:31.701Z,5.90
2019-04-26T11:00:57.725Z,4.73
2019-04-26T11:02:23.720Z,6.63
2019-04-26T11:03:49.322Z,5.63
2019-04-26T11:05:18.224Z,5.33
2019-04-26T11:06:42.237Z,5.20
2019-04-26T11:08:08.062Z,5.90
2019-04-26T11:09:33.543Z,5.10
2019-04-26T11:10:59.518Z,4.90
2019-04-26T11:12:25.073Z,4.80
2019-04-26T11:13:50.513Z,4.83
2019-04-26T11:15:16.785Z,5.37
2019-04-26T11:16:42.355Z,5.13
2019-04-26T11:18:08.043Z,5.30
2019-04-26T11:19:35.532Z,4.57
2019-04-26T11:21:00.718Z,5.17
2019-04-26T11:22:29.254Z,4.60
2019-04-26T11:23:53.533Z,4.47
2019-04-26T11:25:19.305Z,5.07
2019-04-26T11:26:45.007Z,6.07
2019-04-26T11:28:10.626Z,4.90
2019-04-26T11:29:36.126Z,4.70
2019-04-26T11:31:01.859Z,5.43
2019-04-26T11:32:27.350Z,4.70
2019-04-26T11:34:04.442Z,5.63
2019-04-26T11:35:20.218Z,5.27
2019-04-26T11:36:46.065Z,3.93
2019-04-26T11:38:12.140Z,5.23
2019-04-26T11:39:40.587Z,4.87
2019-04-26T11:41:06.788Z,4.97
2019-04-26T11:42:31.928Z,5.17
2019-04-26T11:43:57.723Z,5.30
2019-04-26T11:45:23.384Z,4.87
2019-04-26T11:46:48.955Z,4.93
2019-04-26T11:48:14.452Z,5.03
2019-04-26T11:49:41.494Z,6.43
2019-04-26T11:51:07.335Z,5.80
2019-04-26T11:52:36.035Z,5.30
2019-04-26T11:54:00.078Z,4.50
2019-04-26T11:55:29.771Z,4.50
2019-04-26T11:56:52.821Z,4.40
2019-04-26T11:58:22.654Z,4.40
2019-04-26T11:59:45.370Z,5.40
2019-04-26T12:01:12.572Z,5.30
2019-04-26T12:02:38.683Z,5.07
2019-04-26T12:04:17.369Z,4.90
2019-04-26T12:05:48.068Z,5.30
2019-04-26T12:07:21.338Z,4.60
2019-04-26T12:08:53.737Z,4.73
2019-04-26T12:10:19.497Z,4.33
2019-04-26T12:11:50.957Z,4.60
2019-04-26T12:13:12.259Z,3.83
2019-04-26T12:14:37.806Z,4.20
2019-04-26T12:16:03.224Z,4.20
2019-04-26T12:17:31.211Z,5.17
2019-04-26T12:18:55.950Z,5.20
2019-04-26T12:20:22.392Z,4.40
2019-04-26T12:21:48.970Z,4.97
2019-04-26T12:23:20.334Z,4.90
2019-04-26T12:24:41.797Z,4.00
2019-04-26T12:26:07.314Z,4.43
2019-04-26T12:27:32.821Z,4.70
2019-04-26T12:28:58.452Z,5.10
2019-04-26T12:30:26.737Z,3.97
2019-04-26T12:32:01.671Z,4.20
2019-04-26T12:33:38.988Z,3.93
2019-04-26T12:35:04.021Z,4.90
2019-04-26T12:36:41.810Z,3.73
2019-04-26T12:38:09.265Z,3.77
2019-04-26T12:39:38.301Z,3.50
2019-04-26T12:41:04.933Z,3.27
2019-04-26T12:42:33.610Z,3.90
2019-04-26T12:44:05.537Z,4.33
2019-04-26T12:45:52.900Z,3.40
2019-04-26T12:47:30.517Z,4.97
2019-04-26T12:48:55.957Z,4.13
2019-04-26T12:50:21.526Z,3.93
2019-04-26T12:51:48.758Z,4.63
2019-04-26T12:53:17.887Z,3.20
2019-04-26T12:54:43.042Z,4.43
2019-04-26T12:56:09.386Z,3.80
2019-04-26T12:57:36.557Z,4.20
2019-04-26T12:59:02.037Z,4.07
2019-04-26T13:00:32.969Z,4.63
2019-04-26T13:02:05.540Z,3.63
2019-04-26T13:03:29.298Z,3.37
2019-04-26T13:04:52.557Z,3.10
2019-04-26T13:06:19.867Z,3.57
2019-04-26T13:07:47.666Z,3.10
2019-04-26T13:09:22.040Z,3.77
2019-04-26T13:11:07.929Z,3.30
2019-04-26T13:12:51.094Z,4.33
2019-04-26T13:14:27.283Z,3.83
2019-04-26T13:16:16.186Z,3.80
2019-04-26T13:17:52.456Z,4.27
2019-04-26T13:19:19.864Z,5.23
2019-04-26T13:20:45.519Z,4.90
2019-04-26T13:22:12.607Z,4.13
2019-04-26T13:23:38.120Z,4.50
2019-04-26T13:25:04.784Z,3.47
2019-04-26T13:26:37.672Z,4.60
2019-04-26T13:28:03.308Z,4.70
2019-04-26T13:29:48.302Z,4.67
2019-04-26T13:31:14.933Z,4.00
2019-04-26T13:32:44.930Z,4.63
2019-04-26T13:34:10.369Z,4.50
2019-04-26T13:35:35.956Z,4.03
2019-04-26T13:37:03.000Z,4.13
2019-04-26T13:38:29.065Z,3.70
2019-04-26T13:39:55.328Z,3.50
2019-04-26T13:41:22.187Z,4.10
2019-04-26T13:42:51.444Z,3.80
2019-04-26T13:44:16.759Z,3.23
2019-04-26T13:46:25.356Z,3.73
2019-04-26T13:48:12.572Z,3.80
2019-04-26T13:49:53.447Z,4.00
2019-04-26T13:51:20.110Z,3.77
2019-04-26T13:52:45.905Z,4.00
2019-04-26T13:54:11.405Z,4.27
2019-04-26T13:56:01.922Z,3.97
2019-04-26T13:57:40.237Z,4.10
2019-04-26T13:59:44.384Z,3.93
2019-04-26T14:01:14.573Z,3.33
2019-04-26T14:02:54.031Z,3.90
2019-04-26T14:04:26.297Z,3.80
2019-04-26T14:06:10.409Z,3.47
2019-04-26T14:07:55.313Z,3.27
2019-04-26T14:09:38.433Z,5.17
2019-04-26T14:11:14.226Z,4.30
2019-04-26T14:12:56.057Z,4.00
2019-04-26T14:14:34.233Z,3.27
2019-04-26T14:16:05.170Z,3.73
2019-04-26T14:17:37.660Z,3.87
2019-04-26T14:19:14.830Z,3.10
2019-04-26T14:20:37.544Z,4.40
2019-04-26T14:22:06.701Z,3.60
2019-04-26T14:23:49.485Z,2.70
2019-04-26T14:25:18.868Z,3.67
2019-04-26T14:26:57.651Z,3.63
2019-04-26T14:28:24.973Z,3.03
2019-04-26T14:29:50.888Z,3.23
2019-04-26T14:31:18.117Z,3.43
2019-04-26T14:32:43.730Z,2.87
2019-04-26T14:34:11.950Z,3.00
2019-04-26T14:35:39.848Z,3.77
2019-04-26T14:37:11.054Z,3.10
2019-04-26T14:38:40.038Z,3.13
2019-04-26T14:40:16.564Z,3.53
2019-04-26T14:41:29.936Z,3.60
2019-04-26T14:43:06.461Z,3.47
2019-04-26T14:44:22.637Z,3.10
2019-04-26T14:45:55.656Z,3.60
2019-04-26T14:47:17.904Z,3.20
2019-04-26T14:48:44.687Z,2.80
2019-04-26T14:50:14.595Z,3.33
2019-04-26T14:51:50.725Z,3.00
2019-04-26T14:53:12.558Z,3.03
2019-04-26T14:54:41.527Z,2.53
2019-04-26T14:56:05.751Z,3.10
2019-04-26T14:57:37.190Z,2.97
2019-04-26T14:59:08.042Z,2.83
2019-04-26T15:00:33.951Z,3.20
2019-04-26T15:02:10.428Z,3.07
2019-04-26T15:03:51.374Z,2.93
2019-04-26T15:05:30.772Z,3.27
2019-04-26T15:06:58.193Z,3.30
2019-04-26T15:08:23.915Z,3.30
2019-04-26T15:09:49.460Z,2.60
2019-04-26T15:11:15.127Z,2.83
2019-04-26T15:12:46.989Z,3.27
2019-04-26T15:14:07.951Z,3.07
2019-04-26T15:15:34.631Z,3.43
2019-04-26T15:17:00.375Z,3.10
2019-04-26T15:18:29.311Z,2.77
2019-04-26T15:19:53.879Z,2.77
2019-04-26T15:21:19.580Z,3.03
2019-04-26T15:22:48.611Z,3.67
2019-04-26T15:24:12.848Z,3.37
2019-04-26T15:25:41.405Z,3.13
2019-04-26T15:27:05.808Z,2.40
2019-04-26T15:28:32.817Z,2.30
2019-04-26T15:30:01.605Z,2.23
2019-04-26T15:31:25.894Z,2.53
2019-04-26T15:32:52.895Z,3.50
2019-04-26T15:34:19.266Z,2.77
2019-04-26T15:35:46.505Z,4.60
2019-04-26T15:37:12.885Z,2.90
2019-04-26T15:38:43.268Z,2.83
2019-04-26T15:40:31.916Z,2.80
2019-04-26T15:42:05.428Z,2.30
2019-04-26T15:43:50.271Z,2.60
2019-04-26T15:45:38.707Z,2.33
2019-04-26T15:47:19.240Z,2.33
2019-04-26T15:48:54.648Z,3.10
2019-04-26T15:50:40.998Z,2.40
2019-04-26T15:52:07.679Z,2.50
2019-04-26T15:53:35.004Z,2.63
2019-04-26T15:55:04.159Z,2.47
2019-04-26T15:56:28.371Z,2.80
2019-04-26T15:57:53.925Z,2.27
2019-04-26T15:59:22.767Z,2.57
2019-04-26T16:00:46.658Z,2.83
2019-04-26T16:02:12.669Z,2.30
2019-04-26T16:03:40.842Z,3.00
2019-04-26T16:05:05.617Z,2.73
2019-04-26T16:06:32.245Z,2.43
2019-04-26T16:08:01.834Z,2.67
2019-04-26T16:09:25.399Z,3.23
2019-04-26T16:10:50.988Z,2.40
2019-04-26T16:12:20.211Z,2.30
2019-04-26T16:13:46.644Z,2.40
2019-04-26T16:15:14.709Z,2.20
2019-04-26T16:16:38.276Z,3.07
2019-04-26T16:18:04.238Z,2.40
2019-04-26T16:19:31.676Z,2.20
2019-04-26T16:20:57.284Z,1.80
2019-04-26T16:22:25.826Z,2.97
2019-04-26T16:23:52.012Z,2.40
2019-04-26T16:25:16.946Z,2.00
2019-04-26T16:26:50.458Z,2.53
2019-04-26T16:28:30.930Z,2.07
2019-04-26T16:32:12.550Z,2.30
2019-04-26T16:33:38.960Z,2.43
2019-04-26T16:35:04.642Z,2.37
2019-04-26T16:36:30.204Z,2.63
2019-04-26T16:37:59.795Z,2.40
2019-04-26T16:39:23.825Z,2.10
2019-04-26T16:40:52.190Z,2.37
2019-04-26T16:42:16.938Z,2.50
2019-04-26T16:43:50.952Z,2.87
2019-04-26T16:45:12.293Z,2.63
2019-04-26T16:46:37.998Z,2.30
2019-04-26T16:48:03.451Z,2.43
2019-04-26T16:49:28.926Z,2.13
2019-04-26T16:50:54.372Z,3.20
2019-04-26T16:52:19.843Z,2.50
2019-04-26T16:54:02.956Z,2.60
2019-04-26T16:55:20.426Z,2.20
2019-04-26T16:56:40.157Z,2.60
2019-04-26T16:58:05.895Z,2.27
2019-04-26T16:59:32.838Z,2.17
2019-04-26T17:00:58.591Z,2.93
2019-04-26T17:02:26.488Z,3.63
2019-04-26T17:03:53.018Z,2.90
2019-04-26T17:05:23.893Z,2.40
2019-04-26T17:06:46.813Z,2.90
2019-04-26T17:08:12.968Z,2.80
2019-04-26T17:09:55.516Z,2.20
2019-04-26T17:11:05.728Z,2.43
2019-04-26T17:12:33.061Z,2.70
2019-04-26T17:14:04.106Z,2.73
2019-04-26T17:15:25.457Z,3.43
2019-04-26T17:16:53.028Z,2.33
2019-04-26T17:18:19.405Z,3.03
2019-04-26T17:19:45.101Z,3.00
2019-04-26T17:21:12.583Z,3.10
2019-04-26T17:23:01.004Z,3.50
2019-04-26T17:24:46.460Z,3.43
2019-04-26T17:26:39.975Z,3.17
2019-04-26T17:28:05.753Z,3.07
2019-04-26T17:29:31.871Z,2.07
2019-04-26T17:30:58.878Z,2.33
2019-04-26T17:32:24.476Z,2.80
2019-04-26T17:33:50.055Z,1.90
2019-04-26T17:35:15.542Z,2.37
2019-04-26T17:36:40.947Z,2.57
2019-04-26T17:38:06.390Z,3.43
2019-04-26T17:39:31.879Z,3.00
2019-04-26T17:40:57.571Z,2.20
2019-04-26T17:42:25.200Z,3.13
2019-04-26T17:43:55.970Z,2.50
2019-04-26T17:45:17.316Z,2.43
2019-04-26T17:46:42.947Z,3.13
2019-04-26T17:48:11.702Z,3.10
2019-04-26T17:49:38.361Z,2.33
2019-04-26T17:51:02.601Z,2.43
2019-04-26T17:52:34.954Z,3.70
2019-04-26T17:54:20.430Z,4.00
2019-04-26T17:55:22.475Z,3.60
2019-04-26T17:56:48.246Z,3.90
2019-04-26T17:58:17.254Z,4.23
2019-04-26T17:59:45.293Z,3.90
2019-04-26T18:01:07.964Z,4.80
2019-04-26T18:02:41.963Z,4.85
2019-04-26T18:04:00.703Z,5.30
2019-04-26T18:05:41.843Z,5.63
2019-04-26T18:07:03.018Z,4.80
2019-04-26T18:08:35.773Z,4.53
2019-04-26T18:09:47.706Z,4.70
2019-04-26T18:11:19.764Z,4.20
2019-04-26T18:12:45.966Z,3.20
2019-04-26T18:14:21.082Z,3.60
2019-04-26T18:15:46.879Z,2.53
2019-04-26T18:17:26.301Z,3.20
2019-04-26T18:19:17.016Z,2.87
2019-04-26T18:21:00.396Z,2.90
2019-04-26T18:22:34.573Z,2.90
2019-04-26T18:23:58.058Z,2.87
2019-04-26T18:25:23.583Z,3.10
2019-04-26T18:26:52.233Z,2.60
2019-04-26T18:28:17.243Z,2.93
2019-04-26T18:29:43.690Z,2.93
2019-04-26T18:31:11.151Z,3.13
2019-04-26T18:32:42.327Z,2.87
2019-04-26T18:34:04.225Z,3.10
2019-04-26T18:35:29.838Z,2.57
2019-04-26T18:36:55.420Z,2.80
2019-04-26T18:38:20.878Z,3.27
2019-04-26T18:39:46.372Z,3.20
2019-04-26T18:41:13.578Z,2.63
2019-04-26T18:42:41.889Z,2.70
2019-04-26T18:44:07.011Z,3.07
2019-04-26T18:45:32.515Z,3.50
2019-04-26T18:47:06.759Z,3.30
2019-04-26T18:48:35.459Z,3.50
2019-04-26T18:50:09.107Z,3.20
2019-04-26T18:51:34.676Z,2.97
2019-04-26T18:53:19.739Z,3.70
2019-04-26T18:55:08.261Z,2.93
2019-04-26T18:56:39.465Z,2.97
2019-04-26T18:58:06.613Z,3.60
2019-04-26T18:59:34.022Z,4.30
2019-04-26T19:01:01.683Z,6.00
2019-04-26T19:02:28.013Z,6.00
2019-04-26T19:03:54.152Z,6.40
2019-04-26T19:05:27.040Z,5.37
2019-04-26T19:06:47.424Z,6.30
2019-04-26T19:08:16.221Z,6.47
2019-04-26T19:09:58.862Z,4.60
2019-04-26T19:11:11.620Z,4.20
2019-04-26T19:12:38.682Z,3.80
2019-04-26T19:14:15.449Z,3.30
2019-04-26T19:15:51.577Z,5.20
2019-04-26T19:17:30.194Z,4.07
2019-04-26T19:19:03.288Z,3.60
2019-04-26T19:20:59.328Z,3.80
2019-04-26T19:22:25.055Z,3.70
2019-04-26T19:23:51.895Z,4.10
2019-04-26T19:25:21.487Z,4.10
2019-04-26T19:26:49.685Z,3.83
2019-04-26T19:28:12.252Z,4.07
2019-04-26T19:29:37.888Z,3.60
2019-04-26T19:31:03.447Z,3.13
2019-04-26T19:32:28.931Z,4.63
2019-04-26T19:33:56.002Z,3.30
2019-04-26T19:35:21.969Z,3.70
2019-04-26T19:36:47.574Z,4.17
2019-04-26T19:38:14.742Z,4.33
2019-04-26T19:39:40.517Z,4.10
2019-04-26T19:41:06.160Z,3.90
2019-04-26T19:42:32.479Z,5.67
2019-04-26T19:43:58.048Z,4.13
2019-04-26T19:45:45.899Z,5.00
2019-04-26T19:47:46.610Z,4.23
2019-04-26T19:49:44.338Z,3.90
2019-04-26T19:51:41.497Z,4.80
2019-04-26T19:53:17.714Z,3.80
2019-04-26T19:54:53.032Z,4.03
2019-04-26T19:56:27.456Z,4.00
2019-04-26T19:58:23.436Z,4.57
2019-04-26T19:59:48.950Z,4.00
2019-04-26T20:01:16.529Z,4.53
2019-04-26T20:02:42.105Z,5.07
2019-04-26T20:04:07.748Z,4.00
2019-04-26T20:05:36.380Z,5.00
2019-04-26T20:07:01.344Z,5.60
2019-04-26T20:08:29.406Z,5.10
2019-04-26T20:09:56.304Z,5.73
2019-04-26T20:11:21.892Z,5.37
2019-04-26T20:12:47.353Z,4.40
2019-04-26T20:14:13.128Z,3.70
2019-04-26T20:16:02.698Z,4.60
2019-04-26T20:17:24.862Z,4.90
2019-04-26T20:18:50.341Z,4.90
2019-04-26T20:20:20.974Z,5.77
2019-04-26T20:21:45.434Z,5.60
2019-04-26T20:23:12.164Z,4.77
2019-04-26T20:24:37.420Z,4.57
2019-04-26T20:26:07.260Z,5.43
2019-04-26T20:27:29.976Z,7.00
2019-04-26T20:28:55.416Z,5.30
2019-04-26T20:30:31.638Z,4.63
2019-04-26T20:32:25.444Z,5.13
2019-04-26T20:33:50.925Z,4.80
2019-04-26T20:35:26.370Z,5.20
2019-04-26T20:36:47.853Z,5.20
2019-04-26T20:38:13.519Z,4.43
2019-04-26T20:39:39.073Z,4.67
2019-04-26T20:41:04.905Z,4.10
2019-04-26T20:42:31.641Z,4.97
2019-04-26T20:44:06.916Z,4.60
2019-04-26T20:45:24.410Z,4.90
2019-04-26T20:46:51.839Z,4.97
2019-04-26T20:48:17.017Z,5.40
2019-04-26T20:49:49.634Z,4.43
2019-04-26T20:51:11.005Z,5.33
2019-04-26T20:52:36.888Z,4.70
2019-04-26T20:54:03.912Z,5.63
2019-04-26T20:55:30.633Z,4.40
2019-04-26T20:56:56.550Z,5.00
2019-04-26T20:58:22.130Z,5.10
2019-04-26T20:59:47.545Z,5.47
2019-04-26T21:01:14.230Z,4.73
2019-04-26T21:02:40.196Z,4.80
2019-04-26T21:04:05.986Z,4.90
2019-04-26T21:05:45.343Z,5.03
2019-04-26T21:06:58.704Z,4.90